Time;durP1;ratioP1;P1;durP2;ratioP2;P2;SDS_P1;SDS_P2;PMS_P1;PMS_P2;Temp;Humidity;BMP_temperature;BMP_pressure;BME280_temperature;BME280_humidity;BME280_pressure;Samples;Min_cycle;Max_cycle;Signal;HPM_P1;HPM_P2
2022/05/25 00:00:56;;;;;;;1.55;0.47;;;16.00;55.70;;;;;;4989299;28;20070;-51
2022/05/25 00:03:23;;;;;;;3.15;0.47;;;15.90;55.70;;;;;;4990014;28;20050;-48
2022/05/25 00:05:50;;;;;;;2.85;0.40;;;15.80;55.70;;;;;;4987821;28;20042;-50
2022/05/25 00:08:21;;;;;;;0.43;0.43;;;15.80;55.70;;;;;;4988831;28;20058;-49
2022/05/25 00:10:47;;;;;;;1.13;0.57;;;15.70;55.70;;;;;;4989091;28;20458;-50
2022/05/25 00:13:14;;;;;;;0.40;0.40;;;15.60;55.80;;;;;;4989257;28;20097;-48
2022/05/25 00:15:41;;;;;;;0.63;0.45;;;15.60;55.90;;;;;;4988340;28;20085;-51
2022/05/25 00:18:08;;;;;;;1.52;0.70;;;15.50;55.90;;;;;;4988821;28;20132;-51
2022/05/25 00:20:37;;;;;;;0.43;0.43;;;15.50;56.10;;;;;;4988897;28;20081;-47
2022/05/25 00:23:04;;;;;;;1.00;0.40;;;15.40;56.30;;;;;;4989602;28;20053;-50
2022/05/25 00:25:34;;;;;;;0.60;0.60;;;15.30;56.30;;;;;;4988489;28;20081;-50
2022/05/25 00:28:06;;;;;;;1.20;0.60;;;15.30;56.30;;;;;;4988254;28;20108;-49
2022/05/25 00:30:36;;;;;;;2.85;0.50;;;15.20;56.30;;;;;;4971648;28;20093;-47
2022/05/25 00:33:04;;;;;;;0.47;0.40;;;15.20;56.30;;;;;;4989929;28;20046;-48
2022/05/25 00:35:39;;;;;;;0.50;0.50;;;15.10;56.30;;;;;;4987221;28;20057;-51
2022/05/25 00:38:09;;;;;;;1.55;0.65;;;15.10;56.50;;;;;;4988807;28;20030;-51
2022/05/25 00:40:36;;;;;;;2.17;0.82;;;15.00;56.50;;;;;;4979244;28;20446;-51
2022/05/25 00:43:03;;;;;;;0.50;0.50;;;15.00;56.60;;;;;;4987161;28;20081;-48
2022/05/25 00:45:40;;;;;;;0.70;0.70;;;14.90;56.70;;;;;;4987644;28;20034;-50
2022/05/25 00:48:10;;;;;;;1.20;1.10;;;14.90;58.00;;;;;;4987400;28;20062;-51
2022/05/25 00:53:29;;;;;;;1.13;1.00;;;14.80;58.20;;;;;;4978390;28;20059;-49
2022/05/25 00:55:58;;;;;;;1.42;1.10;;;14.80;58.50;;;;;;4983218;28;20129;-51
2022/05/25 00:58:27;;;;;;;2.42;1.00;;;14.90;58.90;;;;;;4988902;28;20039;-48
2022/05/25 01:00:56;;;;;;;1.08;1.00;;;14.90;59.10;;;;;;4987627;28;20502;-50
2022/05/25 01:03:23;;;;;;;1.25;1.10;;;14.90;59.20;;;;;;4989008;28;20047;-51
2022/05/25 01:06:13;;;;;;;2.15;1.40;;;14.90;59.30;;;;;;4986318;28;20108;-52
2022/05/25 01:09:03;;;;;;;2.63;1.23;;;15.00;59.70;;;;;;4985665;28;20046;-50
2022/05/25 01:12:05;;;;;;;2.67;1.42;;;15.00;60.40;;;;;;4987961;28;20505;-47
2022/05/25 01:14:49;;;;;;;2.25;1.50;;;15.00;60.40;;;;;;4984854;28;20054;-50
2022/05/25 01:17:25;;;;;;;1.65;1.40;;;15.00;59.30;;;;;;4988891;28;20076;-52
2022/05/25 01:20:13;;;;;;;1.75;1.63;;;15.10;60.00;;;;;;4988123;28;20054;-50
2022/05/25 01:23:18;;;;;;;2.70;1.67;;;15.10;60.60;;;;;;4986294;28;20046;-48
2022/05/25 01:26:12;;;;;;;2.20;1.98;;;15.10;60.60;;;;;;4985550;28;20066;-46
2022/05/25 01:29:03;;;;;;;2.08;1.15;;;15.20;60.50;;;;;;4980518;28;20544;-47
2022/05/25 01:31:56;;;;;;;2.83;1.48;;;15.20;60.30;;;;;;4988437;28;20051;-51
2022/05/25 01:34:39;;;;;;;1.95;1.50;;;15.20;60.40;;;;;;4987980;28;20066;-48
2022/05/25 01:37:16;;;;;;;2.70;2.00;;;15.20;60.30;;;;;;4990787;28;20395;-51
2022/05/25 01:40:22;;;;;;;4.13;2.30;;;15.20;60.10;;;;;;4991030;28;20061;-51
2022/05/25 01:43:00;;;;;;;3.22;1.50;;;15.20;60.40;;;;;;4975380;28;20506;-47
2022/05/25 01:45:32;;;;;;;4.18;1.60;;;15.20;59.70;;;;;;4989685;28;20513;-51
2022/05/25 01:48:04;;;;;;;3.67;1.65;;;15.20;59.80;;;;;;4990835;28;20046;-48
2022/05/25 01:50:42;;;;;;;2.20;1.90;;;15.10;59.90;;;;;;4990380;28;20045;-51
2022/05/25 01:53:11;;;;;;;2.75;1.88;;;15.10;60.10;;;;;;4990160;28;20519;-48
2022/05/25 01:56:04;;;;;;;5.63;2.05;;;15.10;60.10;;;;;;4989471;28;20078;-48
2022/05/25 01:58:37;;;;;;;4.03;2.10;;;15.10;60.60;;;;;;4991736;28;20533;-50
2022/05/25 02:01:06;;;;;;;5.47;1.98;;;15.10;60.20;;;;;;4993317;28;20046;-51
2022/05/25 02:06:59;;;;;;;2.80;2.38;;;15.10;60.30;;;;;;4993367;28;20061;-47
2022/05/25 02:09:56;;;;;;;2.53;2.30;;;15.10;61.40;;;;;;4993694;28;20510;-47
2022/05/25 02:12:51;;;;;;;3.88;2.40;;;15.10;61.30;;;;;;4993990;28;20747;-51
2022/05/25 02:15:53;;;;;;;3.58;2.30;;;15.10;60.90;;;;;;4993536;28;20046;-51
2022/05/25 02:18:40;;;;;;;2.03;1.80;;;15.10;61.50;;;;;;4972135;28;20068;-51
2022/05/25 02:21:16;;;;;;;3.20;2.00;;;15.10;61.40;;;;;;4993192;28;20487;-52
2022/05/25 02:24:07;;;;;;;3.17;2.28;;;15.00;61.00;;;;;;4991156;28;20486;-50
2022/05/25 02:26:54;;;;;;;3.20;2.05;;;15.00;61.40;;;;;;4982631;28;20611;-48
2022/05/25 02:29:43;;;;;;;2.45;2.25;;;15.00;61.30;;;;;;4993779;28;20034;-50
2022/05/25 02:32:26;;;;;;;3.50;2.35;;;15.00;60.90;;;;;;4991900;28;20077;-50
2022/05/25 02:34:57;;;;;;;4.75;2.60;;;15.00;61.30;;;;;;4990992;28;20042;-50
2022/05/25 02:37:26;;;;;;;3.60;2.67;;;15.00;60.80;;;;;;4993575;28;20486;-49
2022/05/25 02:39:56;;;;;;;5.00;2.83;;;15.00;60.80;;;;;;4993438;28;20042;-48
2022/05/25 02:42:25;;;;;;;3.28;2.33;;;14.90;60.70;;;;;;4991793;28;20046;-51
2022/05/25 02:44:52;;;;;;;3.55;2.42;;;14.90;60.80;;;;;;4992649;28;20093;-49
2022/05/25 02:47:22;;;;;;;4.40;2.13;;;14.90;60.90;;;;;;4993278;28;20069;-47
2022/05/25 02:49:53;;;;;;;3.03;2.60;;;14.90;61.00;;;;;;4993377;28;20044;-47
2022/05/25 02:52:20;;;;;;;4.00;2.67;;;14.90;60.90;;;;;;4993753;28;20070;-48
2022/05/25 02:54:51;;;;;;;3.60;2.33;;;14.80;61.00;;;;;;4991654;28;20117;-50
2022/05/25 02:57:20;;;;;;;4.32;2.45;;;14.80;61.30;;;;;;4990312;28;20054;-48
2022/05/25 02:59:49;;;;;;;6.80;2.65;;;14.80;61.20;;;;;;4993357;28;20042;-51
2022/05/25 03:02:20;;;;;;;4.68;3.05;;;14.70;61.30;;;;;;4993377;28;20053;-51
2022/05/25 03:04:56;;;;;;;3.63;2.60;;;14.70;61.20;;;;;;4992440;28;20077;-51
2022/05/25 03:07:22;;;;;;;4.15;2.75;;;14.70;61.30;;;;;;4993134;28;20047;-51
2022/05/25 03:09:50;;;;;;;5.75;2.60;;;14.60;61.40;;;;;;4991822;28;20062;-48
2022/05/25 03:12:26;;;;;;;3.08;2.78;;;14.60;61.40;;;;;;4994209;28;20043;-50
2022/05/25 03:14:56;;;;;;;4.95;3.15;;;14.60;61.60;;;;;;4992090;28;20379;-47
2022/05/25 03:17:25;;;;;;;4.75;2.70;;;14.60;61.50;;;;;;4992936;28;20070;-47
2022/05/25 03:19:55;;;;;;;3.38;3.00;;;14.60;61.60;;;;;;4993427;28;20092;-47
2022/05/25 03:22:23;;;;;;;4.03;3.03;;;14.50;61.80;;;;;;4993826;28;20085;-47
2022/05/25 03:24:50;;;;;;;4.45;2.85;;;14.50;61.80;;;;;;4992857;28;20042;-51
2022/05/25 03:27:17;;;;;;;3.88;3.45;;;14.50;61.80;;;;;;4975916;28;20569;-48
2022/05/25 03:29:50;;;;;;;3.53;3.08;;;14.50;61.90;;;;;;4993629;28;20483;-50
2022/05/25 03:32:20;;;;;;;3.40;2.88;;;14.40;61.90;;;;;;4993285;28;20617;-47
2022/05/25 03:34:48;;;;;;;4.68;3.28;;;14.50;61.90;;;;;;4987521;28;20050;-47
2022/05/25 03:37:17;;;;;;;4.50;3.33;;;14.40;61.90;;;;;;4993471;28;20149;-51
2022/05/25 03:39:45;;;;;;;5.97;3.58;;;14.40;62.00;;;;;;4993605;28;20042;-50
2022/05/25 03:42:18;;;;;;;3.42;2.67;;;14.40;62.10;;;;;;4991457;28;20490;-50
2022/05/25 03:44:48;;;;;;;5.30;3.45;;;14.40;62.10;;;;;;4991506;28;20494;-51
2022/05/25 03:47:19;;;;;;;4.35;2.85;;;14.30;62.10;;;;;;4993525;28;20117;-46
2022/05/25 03:49:48;;;;;;;3.67;3.10;;;14.30;62.20;;;;;;4993317;28;20043;-47
2022/05/25 03:52:22;;;;;;;4.53;3.35;;;14.30;62.20;;;;;;4992641;28;20062;-49
2022/05/25 03:54:53;;;;;;;7.13;3.47;;;14.30;62.80;;;;;;4990909;28;20465;-49
2022/05/25 03:57:19;;;;;;;5.03;3.40;;;14.30;62.40;;;;;;4993267;28;20081;-49
2022/05/25 03:59:55;;;;;;;3.92;3.20;;;14.20;62.30;;;;;;4992792;28;20049;-47
2022/05/25 04:02:27;;;;;;;6.13;3.80;;;14.20;62.60;;;;;;4992504;28;20053;-47
2022/05/25 04:05:15;;;;;;;6.10;4.30;;;14.20;62.40;;;;;;4991720;28;20046;-47
2022/05/25 04:07:42;;;;;;;4.82;3.47;;;14.20;62.50;;;;;;4988533;28;20043;-50
2022/05/25 04:10:14;;;;;;;4.22;3.63;;;14.20;62.50;;;;;;4973907;28;20091;-48
2022/05/25 04:12:42;;;;;;;6.13;3.95;;;14.20;62.60;;;;;;4985530;28;20101;-52
2022/05/25 04:15:14;;;;;;;4.18;3.30;;;14.20;62.60;;;;;;4988981;28;20533;-48
2022/05/25 04:17:43;;;;;;;5.85;3.30;;;14.20;62.90;;;;;;4995039;28;20046;-51
2022/05/25 04:20:12;;;;;;;6.28;3.30;;;14.20;62.70;;;;;;5008263;28;20046;-47
2022/05/25 04:22:39;;;;;;;4.05;3.17;;;14.20;62.80;;;;;;4996208;28;20081;-46
2022/05/25 04:25:10;;;;;;;3.67;3.10;;;14.20;62.90;;;;;;5002775;28;20073;-48
2022/05/25 04:27:38;;;;;;;5.75;3.20;;;14.20;63.10;;;;;;4999044;28;20038;-47
2022/05/25 04:30:07;;;;;;;4.85;3.17;;;14.20;63.10;;;;;;4999365;28;20406;-47
2022/05/25 04:32:34;;;;;;;4.07;3.58;;;14.20;63.20;;;;;;4977359;28;20065;-51
2022/05/25 04:35:03;;;;;;;4.28;3.10;;;14.20;63.20;;;;;;5000481;28;20052;-48
2022/05/25 04:40:19;;;;;;;4.63;3.55;;;14.20;63.20;;;;;;5006963;23;20134;-51
2022/05/25 04:42:46;;;;;;;5.82;3.17;;;14.20;63.30;;;;;;4955109;28;20039;-54
2022/05/25 04:45:13;;;;;;;4.57;4.05;;;14.20;63.30;;;;;;4968052;28;20042;-51
2022/05/25 04:47:40;;;;;;;5.60;2.63;;;14.20;63.40;;;;;;4955249;28;20570;-51
2022/05/25 04:50:16;;;;;;;6.82;3.38;;;14.20;63.40;;;;;;4970818;28;20419;-50
2022/05/25 04:52:43;;;;;;;4.95;3.13;;;14.30;63.50;;;;;;4967249;28;20099;-52
2022/05/25 04:57:19;;;;;;;7.40;3.35;;;14.30;63.50;;;;;;4985184;28;20108;-49
2022/05/25 04:57:57;;;;;;;4.47;3.22;;;14.30;63.60;;;;;;4975321;28;20502;-51
2022/05/25 05:00:25;;;;;;;4.57;3.17;;;14.30;63.50;;;;;;4980086;28;20137;-53
2022/05/25 05:02:52;;;;;;;5.72;3.42;;;14.30;63.60;;;;;;4963949;28;20050;-47
2022/05/25 05:05:19;;;;;;;6.47;3.95;;;14.30;63.60;;;;;;4980348;28;20093;-50
2022/05/25 05:07:46;;;;;;;4.13;3.08;;;14.40;63.80;;;;;;4971576;28;20084;-51
2022/05/25 05:10:13;;;;;;;5.60;3.55;;;14.40;63.80;;;;;;4982184;28;20065;-47
2022/05/25 05:12:41;;;;;;;5.82;4.05;;;14.40;63.80;;;;;;4987691;28;20145;-53
2022/05/25 05:15:08;;;;;;;6.38;3.50;;;14.40;63.80;;;;;;4967007;28;20046;-49
2022/05/25 05:17:35;;;;;;;4.30;3.20;;;14.40;63.90;;;;;;4985846;28;20038;-49
2022/05/25 05:20:20;;;;;;;4.15;2.92;;;14.50;64.00;;;;;;4970993;28;20061;-52
2022/05/25 05:22:47;;;;;;;4.75;3.10;;;14.50;64.00;;;;;;4987138;28;20064;-52
2022/05/25 05:25:14;;;;;;;4.97;3.60;;;14.50;64.00;;;;;;4986731;28;20141;-50
2022/05/25 05:27:40;;;;;;;5.22;3.38;;;14.50;64.10;;;;;;4982846;28;20563;-50
2022/05/25 05:30:07;;;;;;;6.05;3.58;;;14.60;64.10;;;;;;4981403;28;20097;-49
2022/05/25 05:32:35;;;;;;;8.52;3.33;;;14.60;64.10;;;;;;4984963;28;20104;-51
2022/05/25 05:35:03;;;;;;;7.28;3.67;;;14.70;64.00;;;;;;4986713;28;20042;-49
2022/05/25 05:37:35;;;;;;;7.18;3.75;;;14.70;63.90;;;;;;4990553;28;20460;-49
2022/05/25 05:40:05;;;;;;;4.93;3.53;;;14.70;64.10;;;;;;4991816;28;20463;-47
2022/05/25 05:42:33;;;;;;;5.03;3.88;;;14.70;63.90;;;;;;4991559;28;20081;-52
2022/05/25 05:45:12;;;;;;;5.07;3.38;;;14.80;63.70;;;;;;4993994;28;20053;-52
2022/05/25 05:47:51;;;;;;;4.30;3.45;;;14.80;64.30;;;;;;4990569;28;20046;-52
2022/05/25 05:50:20;;;;;;;6.30;3.80;;;14.90;64.30;;;;;;4987464;28;20427;-51
2022/05/25 05:52:49;;;;;;;4.57;3.13;;;14.90;63.80;;;;;;4984190;28;20557;-51
2022/05/25 05:55:16;;;;;;;5.00;3.42;;;14.90;63.80;;;;;;4985638;28;20555;-50
2022/05/25 05:57:44;;;;;;;5.28;3.58;;;14.90;63.90;;;;;;4989209;28;20042;-51
2022/05/25 06:00:15;;;;;;;6.93;3.88;;;15.00;64.00;;;;;;4988766;28;20042;-49
2022/05/25 06:02:43;;;;;;;7.18;3.45;;;15.00;63.90;;;;;;4983012;28;20038;-52
2022/05/25 06:05:11;;;;;;;7.30;3.35;;;15.10;63.90;;;;;;4982827;28;20043;-48
2022/05/25 06:07:39;;;;;;;4.72;3.22;;;15.10;63.90;;;;;;4988133;28;20371;-48
2022/05/25 06:10:06;;;;;;;4.30;3.03;;;15.10;63.70;;;;;;4972643;28;20038;-50
2022/05/25 06:12:33;;;;;;;5.53;3.17;;;15.10;63.60;;;;;;4984881;28;20411;-50
2022/05/25 06:19:25;;;;;;;4.82;2.72;;;15.20;63.60;;;;;;4988256;28;20042;-50
2022/05/25 06:20:33;;;;;;;5.80;2.92;;;15.30;63.30;;;;;;4989434;28;20043;-48
2022/05/25 06:23:00;;;;;;;3.63;2.53;;;15.30;63.20;;;;;;4984144;28;20050;-48
2022/05/25 06:25:27;;;;;;;6.00;2.85;;;15.30;63.20;;;;;;4983599;28;20097;-50
2022/05/25 06:27:55;;;;;;;4.35;2.83;;;15.40;63.30;;;;;;4990367;28;20091;-51
2022/05/25 06:30:22;;;;;;;5.43;2.80;;;15.40;63.30;;;;;;4990824;28;20038;-52
2022/05/25 06:32:49;;;;;;;5.65;2.72;;;15.50;63.20;;;;;;4988085;28;20109;-51
2022/05/25 06:35:16;;;;;;;3.80;2.83;;;15.50;63.10;;;;;;4984800;28;20046;-51
2022/05/25 06:37:42;;;;;;;3.45;2.08;;;15.60;62.80;;;;;;4990532;28;20046;-52
2022/05/25 06:40:09;;;;;;;3.42;2.15;;;15.60;62.50;;;;;;4990629;28;20117;-48
2022/05/25 06:42:39;;;;;;;3.28;2.25;;;15.60;62.40;;;;;;4987169;28;20093;-50
2022/05/25 06:45:10;;;;;;;4.55;2.38;;;15.70;62.80;;;;;;4987748;28;20169;-51
2022/05/25 06:47:37;;;;;;;4.13;2.08;;;15.70;62.60;;;;;;4986068;28;20041;-51
2022/05/25 06:50:05;;;;;;;5.60;2.53;;;15.80;62.50;;;;;;4975376;28;20050;-53
2022/05/25 06:52:32;;;;;;;2.83;1.67;;;15.80;62.30;;;;;;4988268;28;20748;-50
2022/05/25 06:54:59;;;;;;;4.00;1.85;;;15.90;62.00;;;;;;4993169;28;20418;-51
2022/05/25 06:57:26;;;;;;;2.97;1.67;;;15.90;61.90;;;;;;4993530;28;20077;-50
2022/05/25 06:59:53;;;;;;;3.47;1.90;;;16.00;62.00;;;;;;4992858;28;20497;-49
2022/05/25 07:02:21;;;;;;;1.85;1.60;;;16.00;61.90;;;;;;4987124;28;20066;-49
2022/05/25 07:04:48;;;;;;;4.95;1.95;;;16.10;61.60;;;;;;4997942;28;20045;-52
2022/05/25 07:07:15;;;;;;;3.17;1.48;;;16.10;61.20;;;;;;4992382;28;20588;-48
2022/05/25 07:09:43;;;;;;;3.92;1.50;;;16.20;61.00;;;;;;4993648;28;20046;-52
2022/05/25 07:12:10;;;;;;;2.58;1.88;;;16.20;60.90;;;;;;4988707;28;20030;-53
2022/05/25 07:14:37;;;;;;;1.80;1.30;;;16.30;60.40;;;;;;4992721;28;20506;-48
2022/05/25 07:17:04;;;;;;;4.03;1.90;;;16.30;60.20;;;;;;4976124;28;20058;-50
2022/05/25 07:19:31;;;;;;;3.03;1.70;;;16.30;60.20;;;;;;4990142;28;20042;-55
2022/05/25 07:21:59;;;;;;;4.90;2.05;;;16.40;60.80;;;;;;4987829;28;20039;-51
2022/05/25 07:24:25;;;;;;;1.88;1.17;;;16.40;59.10;;;;;;4976591;28;20054;-49
2022/05/25 07:26:52;;;;;;;3.20;1.35;;;16.40;59.00;;;;;;4987552;28;20030;-51
2022/05/25 07:29:19;;;;;;;2.17;1.42;;;16.50;59.00;;;;;;4992969;28;20047;-53
2022/05/25 07:31:52;;;;;;;4.97;1.33;;;16.50;59.40;;;;;;4993524;28;20046;-48
2022/05/25 07:34:21;;;;;;;1.42;0.98;;;16.60;58.70;;;;;;4975785;28;20457;-49
2022/05/25 07:37:11;;;;;;;2.25;0.82;;;16.60;58.40;;;;;;4986546;28;20034;-50
2022/05/25 07:39:44;;;;;;;3.33;1.17;;;16.70;58.30;;;;;;4974096;28;20042;-50
2022/05/25 07:42:12;;;;;;;1.55;1.08;;;16.70;58.20;;;;;;4966704;28;20066;-52
2022/05/25 07:44:52;;;;;;;2.15;1.17;;;16.80;58.60;;;;;;4993088;28;20064;-51
2022/05/25 07:47:19;;;;;;;2.05;1.45;;;16.80;58.70;;;;;;4994545;28;20453;-52
2022/05/25 07:49:46;;;;;;;2.42;1.10;;;16.90;58.50;;;;;;4988935;28;20030;-53
2022/05/25 07:52:14;;;;;;;2.20;1.10;;;16.90;58.50;;;;;;4973958;28;20122;-52
2022/05/25 07:54:42;;;;;;;0.93;0.77;;;17.00;58.20;;;;;;4990201;28;20069;-52
2022/05/25 07:57:10;;;;;;;2.40;1.10;;;17.00;58.10;;;;;;4990354;28;20053;-50
2022/05/25 07:59:38;;;;;;;2.55;0.90;;;17.10;58.00;;;;;;4995797;28;20541;-51
2022/05/25 08:07:47;;;;;;;2.00;1.10;;;17.20;57.10;;;;;;4987407;28;20100;-48
2022/05/25 08:10:18;;;;;;;3.88;1.60;;;17.30;56.80;;;;;;4993738;28;20047;-52
2022/05/25 08:12:46;;;;;;;1.40;0.95;;;17.30;56.00;;;;;;4998122;28;20034;-49
2022/05/25 08:15:17;;;;;;;2.08;0.70;;;17.40;55.90;;;;;;4991544;28;20054;-52
2022/05/25 08:17:44;;;;;;;1.85;0.77;;;17.50;55.90;;;;;;4998358;28;20410;-50
2022/05/25 08:20:11;;;;;;;2.22;0.70;;;17.50;56.30;;;;;;5000183;28;20094;-48
2022/05/25 08:22:41;;;;;;;1.27;0.60;;;17.60;56.00;;;;;;4987294;28;20559;-49
2022/05/25 08:25:10;;;;;;;1.55;0.88;;;17.60;55.70;;;;;;4988618;28;20458;-51
2022/05/25 08:27:39;;;;;;;1.45;0.73;;;17.70;55.50;;;;;;4997250;28;20042;-48
2022/05/25 08:30:09;;;;;;;1.83;0.70;;;17.70;55.40;;;;;;4990774;28;20125;-52
2022/05/25 08:32:36;;;;;;;1.40;0.77;;;17.80;55.50;;;;;;4988889;28;20038;-48
2022/05/25 08:35:04;;;;;;;3.13;0.70;;;17.80;55.50;;;;;;4985464;28;20046;-48
2022/05/25 08:37:31;;;;;;;3.63;0.90;;;17.90;55.30;;;;;;4990495;28;20065;-49
2022/05/25 08:39:57;;;;;;;3.20;0.90;;;17.90;54.90;;;;;;4990302;28;20042;-54
2022/05/25 08:42:29;;;;;;;1.13;0.70;;;18.00;54.40;;;;;;4991761;28;20050;-51
2022/05/25 08:44:57;;;;;;;1.15;0.90;;;18.00;54.60;;;;;;4969315;28;20054;-50
2022/05/25 08:47:24;;;;;;;3.15;0.75;;;18.10;54.80;;;;;;4989175;28;20047;-50
2022/05/25 08:49:51;;;;;;;2.65;0.90;;;18.10;54.70;;;;;;4972510;28;20038;-51
2022/05/25 08:52:30;;;;;;;1.90;0.80;;;18.10;55.10;;;;;;4986081;28;20687;-49
2022/05/25 08:55:06;;;;;;;2.08;0.65;;;18.30;54.70;;;;;;4986121;28;20034;-51
2022/05/25 08:57:48;;;;;;;2.03;0.73;;;18.40;54.40;;;;;;4988312;28;20789;-52
2022/05/25 09:00:18;;;;;;;0.80;0.50;;;18.50;54.00;;;;;;4989029;28;20116;-53
2022/05/25 09:03:16;;;;;;;1.73;0.82;;;18.60;54.20;;;;;;4988838;28;20056;-48
2022/05/25 09:06:09;;;;;;;0.45;0.38;;;18.70;53.80;;;;;;4985033;28;20112;-49
2022/05/25 09:08:57;;;;;;;1.73;1.00;;;18.80;53.70;;;;;;4996786;28;20046;-49
2022/05/25 09:11:42;;;;;;;1.67;0.70;;;18.90;53.40;;;;;;4977124;28;20494;-49
2022/05/25 09:14:28;;;;;;;0.90;0.52;;;19.00;52.60;;;;;;4983232;28;20042;-50
2022/05/25 09:16:57;;;;;;;2.78;0.50;;;19.10;53.10;;;;;;4989203;28;20061;-50
2022/05/25 09:19:32;;;;;;;1.95;0.60;;;19.10;53.10;;;;;;4991055;28;20065;-52
2022/05/25 09:22:12;;;;;;;2.25;0.77;;;19.20;51.60;;;;;;4987047;28;20097;-51
2022/05/25 09:24:39;;;;;;;2.65;0.90;;;19.20;52.20;;;;;;4987425;28;20046;-47
2022/05/25 09:27:08;;;;;;;2.38;0.55;;;19.20;51.70;;;;;;4989669;28;20097;-48
2022/05/25 09:29:35;;;;;;;1.33;0.45;;;19.20;52.50;;;;;;4991266;28;20411;-50
2022/05/25 09:32:02;;;;;;;1.50;0.50;;;19.30;52.10;;;;;;4987046;28;20038;-50
2022/05/25 09:34:41;;;;;;;2.92;0.52;;;19.30;52.10;;;;;;4989782;28;20098;-55
2022/05/25 09:37:37;;;;;;;0.50;0.40;;;19.40;51.60;;;;;;4969653;28;20453;-50
2022/05/25 09:40:28;;;;;;;0.60;0.52;;;19.40;51.20;;;;;;4967484;28;20466;-48
2022/05/25 09:42:57;;;;;;;0.73;0.73;;;19.50;50.60;;;;;;4975226;28;20054;-49
2022/05/25 09:45:46;;;;;;;2.47;0.73;;;19.50;50.60;;;;;;4987360;28;20042;-52
2022/05/25 09:48:15;;;;;;;0.30;0.30;;;19.60;49.70;;;;;;4988623;28;20049;-53
2022/05/25 09:50:48;;;;;;;2.25;0.55;;;19.60;50.10;;;;;;4987715;28;20058;-48
2022/05/25 09:53:17;;;;;;;1.55;0.40;;;19.70;49.50;;;;;;4990489;28;20042;-50
2022/05/25 09:55:56;;;;;;;1.27;0.50;;;19.70;48.90;;;;;;4988084;28;20082;-50
2022/05/25 09:58:45;;;;;;;1.02;0.50;;;19.70;49.20;;;;;;4991062;28;20051;-52
2022/05/25 10:01:24;;;;;;;1.42;0.30;;;19.80;49.90;;;;;;4987822;28;20710;-52
2022/05/25 10:03:51;;;;;;;1.13;0.50;;;19.80;50.30;;;;;;4989856;28;20054;-49
2022/05/25 10:06:24;;;;;;;1.63;0.60;;;19.90;49.60;;;;;;4986230;28;20148;-51
2022/05/25 10:09:05;;;;;;;1.50;0.80;;;20.00;48.60;;;;;;4984332;28;20097;-51
2022/05/25 10:11:41;;;;;;;0.57;0.45;;;20.10;48.70;;;;;;4987628;28;20034;-51
2022/05/25 10:14:40;;;;;;;0.73;0.50;;;20.10;49.00;;;;;;4987636;28;20038;-53
2022/05/25 10:17:09;;;;;;;2.00;0.63;;;20.20;48.50;;;;;;4987933;28;20058;-53
2022/05/25 10:19:47;;;;;;;0.98;0.45;;;20.30;47.90;;;;;;4985679;28;20387;-52
2022/05/25 10:22:38;;;;;;;0.47;0.40;;;20.40;47.70;;;;;;4991819;28;20050;-49
2022/05/25 10:25:12;;;;;;;1.38;0.40;;;20.40;48.00;;;;;;4988135;28;20050;-47
2022/05/25 10:27:42;;;;;;;0.80;0.32;;;20.40;47.50;;;;;;4986407;28;20039;-50
2022/05/25 10:38:43;;;;;;;0.55;0.43;;;20.90;47.30;;;;;;4999374;28;20042;-50
2022/05/25 10:44:05;;;;;;;0.80;0.43;;;21.10;46.80;;;;;;5006839;28;20038;-46
2022/05/25 10:46:32;;;;;;;0.30;0.30;;;21.30;46.80;;;;;;5003075;28;20171;-45
2022/05/25 10:49:23;;;;;;;1.48;0.50;;;21.40;46.30;;;;;;4999941;28;20034;-46
2022/05/25 10:52:00;;;;;;;1.30;0.43;;;21.50;45.90;;;;;;4983007;28;20070;-50
2022/05/25 10:54:47;;;;;;;0.30;0.30;;;21.60;45.70;;;;;;4960503;28;20053;-49
2022/05/25 10:57:33;;;;;;;0.55;0.50;;;21.70;44.70;;;;;;4978689;28;20094;-50
2022/05/25 11:00:32;;;;;;;2.67;0.30;;;21.70;44.90;;;;;;4977378;28;20094;-45
2022/05/25 11:03:23;;;;;;;1.33;0.30;;;21.80;44.80;;;;;;4988862;28;20057;-46
2022/05/25 11:05:55;;;;;;;4.22;0.40;;;21.90;44.30;;;;;;4979857;28;20892;-45
2022/05/25 11:08:40;;;;;;;0.88;0.45;;;21.90;43.90;;;;;;4973796;28;20506;-49
2022/05/25 11:11:28;;;;;;;0.45;0.40;;;22.00;44.10;;;;;;4972061;28;20578;-49
2022/05/25 11:14:06;;;;;;;0.85;0.40;;;22.00;42.80;;;;;;4972010;28;20077;-48
2022/05/25 11:17:01;;;;;;;0.50;0.40;;;22.00;42.90;;;;;;4975408;28;20058;-48
2022/05/25 11:19:33;;;;;;;0.70;0.40;;;22.00;43.30;;;;;;4935910;28;20053;-46
2022/05/25 11:22:16;;;;;;;1.50;0.70;;;22.00;43.90;;;;;;4981357;28;20108;-48
2022/05/25 11:25:21;;;;;;;1.13;0.22;;;22.00;43.60;;;;;;4978904;28;20089;-51
2022/05/25 11:28:07;;;;;;;0.52;0.22;;;22.00;43.80;;;;;;4980746;28;20047;-50
2022/05/25 11:30:37;;;;;;;1.95;0.20;;;22.00;44.00;;;;;;4977575;28;20046;-50
2022/05/25 11:33:10;;;;;;;0.40;0.30;;;22.00;43.70;;;;;;4976797;28;20038;-50
2022/05/25 11:36:04;;;;;;;1.15;0.28;;;22.00;43.90;;;;;;4980363;28;20043;-46
2022/05/25 11:38:44;;;;;;;1.25;0.20;;;22.00;44.40;;;;;;4973285;28;20399;-50
2022/05/25 11:41:16;;;;;;;0.82;0.30;;;22.10;43.80;;;;;;4956164;28;20495;-46
2022/05/25 11:44:09;;;;;;;0.95;0.30;;;22.20;44.10;;;;;;4971183;28;20627;-48
2022/05/25 11:46:43;;;;;;;0.55;0.30;;;22.20;43.80;;;;;;4963821;28;20046;-49
2022/05/25 11:49:54;;;;;;;0.47;0.32;;;22.40;43.30;;;;;;4972320;28;20043;-50
2022/05/25 11:52:21;;;;;;;1.75;0.30;;;22.50;42.00;;;;;;4980223;28;20050;-51
2022/05/25 11:54:57;;;;;;;0.68;0.15;;;22.60;42.70;;;;;;4972621;28;20042;-47
2022/05/25 11:57:48;;;;;;;1.02;0.20;;;22.80;41.90;;;;;;4972663;28;20085;-48
2022/05/25 12:00:17;;;;;;;0.28;0.17;;;22.90;40.60;;;;;;4973221;28;20062;-47
2022/05/25 12:02:52;;;;;;;0.93;0.30;;;23.10;40.70;;;;;;4980573;28;20380;-47
2022/05/25 12:05:26;;;;;;;1.95;0.30;;;23.20;39.80;;;;;;4972188;28;20082;-48
2022/05/25 12:08:03;;;;;;;0.60;0.32;;;23.30;41.00;;;;;;4975865;28;20093;-47
2022/05/25 12:10:38;;;;;;;1.20;0.38;;;23.30;40.10;;;;;;4976394;28;20074;-47
2022/05/25 12:13:09;;;;;;;1.33;0.38;;;23.40;39.40;;;;;;4977488;28;20113;-49
2022/05/25 12:15:58;;;;;;;0.85;0.40;;;23.40;39.60;;;;;;4973364;28;20051;-46
2022/05/25 12:18:38;;;;;;;1.38;0.10;;;23.40;38.50;;;;;;4979890;28;20081;-51
2022/05/25 12:21:13;;;;;;;3.17;0.30;;;23.50;40.10;;;;;;4976687;28;20089;-47
2022/05/25 12:23:49;;;;;;;1.85;0.40;;;23.50;39.40;;;;;;4979613;28;20426;-50
2022/05/25 12:26:22;;;;;;;1.45;0.30;;;23.60;38.90;;;;;;4981486;28;20430;-49
2022/05/25 12:28:52;;;;;;;0.77;0.17;;;23.70;38.40;;;;;;4984787;28;20034;-47
2022/05/25 12:31:29;;;;;;;0.80;0.52;;;23.70;38.30;;;;;;4976074;28;20073;-45
2022/05/25 12:33:56;;;;;;;1.98;0.40;;;23.70;38.20;;;;;;4980382;28;20118;-51
2022/05/25 12:36:24;;;;;;;4.85;0.30;;;23.70;37.70;;;;;;4979254;28;20065;-45
2022/05/25 12:38:53;;;;;;;0.30;0.20;;;23.80;38.10;;;;;;4970522;28;20043;-49
2022/05/25 12:41:25;;;;;;;1.50;0.43;;;23.80;38.00;;;;;;4975922;28;20078;-50
2022/05/25 12:48:30;;;;;;;0.52;0.30;;;23.80;38.00;;;;;;4971718;28;20046;-49
2022/05/25 12:49:46;;;;;;;1.15;0.63;;;23.80;37.80;;;;;;4967203;28;20498;-47
2022/05/25 12:52:38;;;;;;;0.75;0.40;;;23.90;37.90;;;;;;4969399;28;20045;-52
2022/05/25 12:55:16;;;;;;;1.05;0.38;;;24.10;37.70;;;;;;4966249;28;20030;-49
2022/05/25 12:57:51;;;;;;;1.20;0.40;;;24.10;36.70;;;;;;4970025;28;20506;-47
2022/05/25 13:00:59;;;;;;;0.77;0.30;;;24.10;36.90;;;;;;4970454;28;20557;-46
2022/05/25 13:03:45;;;;;;;0.82;0.52;;;24.10;37.50;;;;;;4974084;28;20098;-49
2022/05/25 13:06:21;;;;;;;0.85;0.40;;;24.20;38.20;;;;;;4980185;28;20061;-49
2022/05/25 13:08:55;;;;;;;1.38;0.22;;;24.20;37.10;;;;;;4968271;28;20077;-48
2022/05/25 13:11:50;;;;;;;0.20;0.20;;;24.20;38.00;;;;;;4971942;28;20140;-48
2022/05/25 13:14:25;;;;;;;2.28;0.22;;;24.30;36.90;;;;;;4970282;28;20535;-46
2022/05/25 13:17:03;;;;;;;0.30;0.30;;;24.40;37.30;;;;;;4969236;28;20046;-48
2022/05/25 13:19:43;;;;;;;1.55;0.30;;;24.40;36.70;;;;;;4970949;28;20080;-50
2022/05/25 13:22:17;;;;;;;1.33;0.60;;;24.50;36.00;;;;;;4970862;28;20127;-50
2022/05/25 13:25:06;;;;;;;1.55;0.40;;;24.50;35.50;;;;;;4967680;28;20093;-46
2022/05/25 13:28:08;;;;;;;0.45;0.40;;;24.40;35.20;;;;;;4965521;28;20491;-47
2022/05/25 13:30:39;;;;;;;0.95;0.30;;;24.30;36.10;;;;;;4952541;28;20077;-48
2022/05/25 13:33:43;;;;;;;1.27;0.60;;;24.30;36.30;;;;;;4968814;28;20035;-47
2022/05/25 13:36:17;;;;;;;0.60;0.60;;;24.30;36.00;;;;;;4965584;28;20043;-50
2022/05/25 13:38:56;;;;;;;1.67;0.45;;;24.20;35.50;;;;;;4967120;28;20127;-48
2022/05/25 13:41:30;;;;;;;1.33;0.40;;;24.10;35.70;;;;;;4967146;28;20129;-46
2022/05/25 13:43:57;;;;;;;0.50;0.28;;;24.00;35.50;;;;;;4970668;28;20037;-49
2022/05/25 13:46:29;;;;;;;1.50;0.35;;;23.90;36.10;;;;;;4969247;28;20070;-49
2022/05/25 13:48:57;;;;;;;1.23;0.30;;;23.80;36.50;;;;;;4969076;28;20039;-47
2022/05/25 13:51:25;;;;;;;0.30;0.30;;;23.80;37.10;;;;;;4970479;28;20383;-52
2022/05/25 13:53:54;;;;;;;1.45;0.55;;;24.00;37.60;;;;;;4968427;28;20062;-47
2022/05/25 13:56:32;;;;;;;1.42;0.20;;;24.40;39.00;;;;;;4973445;28;20074;-47